Time;durP1;ratioP1;P1;durP2;ratioP2;P2;SDS_P1;SDS_P2;PMS_P1;PMS_P2;Temp;Humidity;BMP_temperature;BMP_pressure;BME280_temperature;BME280_humidity;BME280_pressure;Samples;Min_cycle;Max_cycle;Signal;HPM_P1;HPM_P2
2023/01/05 00:02:21;;;;;;;;;;;20.90;99.90;;;;;;5066204;28;19924;-71
2023/01/05 00:04:48;;;;;;;;;;;20.90;99.90;;;;;;5064680;28;20359;-73
2023/01/05 00:07:14;;;;;;;;;;;20.90;99.90;;;;;;5066967;28;19923;-72
2023/01/05 00:09:41;;;;;;;;;;;20.80;99.80;;;;;;5061702;28;19936;-72
2023/01/05 00:23:08;;;;;;;;;;;20.90;99.90;;;;;;5066418;28;19970;-72
2023/01/05 00:25:39;;;;;;;;;;;20.90;99.90;;;;;;5065647;28;20899;-72
2023/01/05 00:28:06;;;;;;;;;;;20.90;99.90;;;;;;5064542;28;20007;-71
2023/01/05 00:30:35;;;;;;;;;;;20.90;99.90;;;;;;5066243;28;19939;-70
2023/01/05 00:33:02;;;;;;;;;;;20.80;99.90;;;;;;5064509;28;19913;-71
2023/01/05 00:35:29;;;;;;;;;;;20.80;99.90;;;;;;5058813;28;19959;-70
2023/01/05 00:37:55;;;;;;;;;;;20.70;99.90;;;;;;5059557;28;20715;-70
2023/01/05 00:40:22;;;;;;;;;;;20.70;99.90;;;;;;5061040;28;20136;-71
2023/01/05 00:42:49;;;;;;;;;;;20.70;99.90;;;;;;5059689;28;20371;-70
2023/01/05 00:45:16;;;;;;;;;;;20.80;99.90;;;;;;5064144;28;19912;-72
2023/01/05 00:47:43;;;;;;;;;;;20.80;99.90;;;;;;5061344;28;19943;-72
2023/01/05 00:50:12;;;;;;;;;;;20.80;99.90;;;;;;5064606;28;19920;-70
2023/01/05 00:52:38;;;;;;;;;;;20.80;99.90;;;;;;5064332;28;19927;-70
2023/01/05 00:55:06;;;;;;;;;;;20.70;99.90;;;;;;5060113;28;20428;-71
2023/01/05 00:57:32;;;;;;;;;;;20.70;99.90;;;;;;5064420;28;19928;-70
2023/01/05 01:00:01;;;;;;;;;;;20.60;99.90;;;;;;5070937;28;19946;-71
2023/01/05 01:02:27;;;;;;;;;;;20.70;99.90;;;;;;5065900;28;19936;-69
2023/01/05 01:04:54;;;;;;;;;;;20.80;99.90;;;;;;5070715;28;20525;-71
2023/01/05 01:07:21;;;;;;;;;;;20.90;99.90;;;;;;5070064;28;19916;-72
2023/01/05 01:09:48;;;;;;;;;;;20.90;99.90;;;;;;5070135;28;20008;-70
2023/01/05 01:12:14;;;;;;;;;;;21.00;99.90;;;;;;5065779;28;20019;-70
2023/01/05 01:14:41;;;;;;;;;;;21.10;99.90;;;;;;5064813;28;19959;-70
2023/01/05 01:17:08;;;;;;;;;;;21.10;99.90;;;;;;5065667;28;19913;-71
2023/01/05 01:19:35;;;;;;;;;;;21.10;99.90;;;;;;5065574;28;19916;-69
2023/01/05 01:22:01;;;;;;;;;;;21.20;99.90;;;;;;5068615;28;19925;-71
2023/01/05 01:24:28;;;;;;;;;;;21.20;99.90;;;;;;5064736;28;20445;-71
2023/01/05 01:26:55;;;;;;;;;;;21.40;99.90;;;;;;5068876;28;19943;-72
2023/01/05 01:29:23;;;;;;;;;;;21.60;99.90;;;;;;5072871;28;19919;-71
2023/01/05 01:31:51;;;;;;;;;;;21.90;99.90;;;;;;5058252;28;20393;-70
2023/01/05 01:34:17;;;;;;;;;;;22.10;99.90;;;;;;5063568;28;19955;-70
2023/01/05 01:36:45;;;;;;;;;;;22.20;99.60;;;;;;5063556;28;20366;-72
2023/01/05 01:39:12;;;;;;;;;;;22.40;99.40;;;;;;5063174;28;19936;-70
2023/01/05 01:41:40;;;;;;;;;;;22.50;99.30;;;;;;5064987;28;19921;-69
2023/01/05 01:44:24;;;;;;;;;;;22.50;98.80;;;;;;5060602;28;19919;-70
2023/01/05 01:46:51;;;;;;;;;;;22.30;98.70;;;;;;5070067;28;19923;-70
2023/01/05 01:49:18;;;;;;;;;;;22.20;98.90;;;;;;5070393;28;20031;-70
2023/01/05 01:51:47;;;;;;;;;;;22.20;99.10;;;;;;5070044;28;19912;-70
2023/01/05 01:54:16;;;;;;;;;;;22.30;99.20;;;;;;5072548;28;20460;-70
2023/01/05 01:56:52;;;;;;;;;;;22.30;98.80;;;;;;5064957;28;20440;-70
2023/01/05 01:59:19;;;;;;;;;;;22.40;98.40;;;;;;5067281;28;19961;-71
2023/01/05 02:01:47;;;;;;;;;;;22.40;98.80;;;;;;5070267;28;19956;-70
2023/01/05 02:04:14;;;;;;;;;;;22.40;98.50;;;;;;5068430;28;19916;-69
2023/01/05 02:06:40;;;;;;;;;;;22.40;98.40;;;;;;5069089;28;19919;-70
2023/01/05 02:09:07;;;;;;;;;;;22.40;98.40;;;;;;5070027;28;19919;-70
2023/01/05 02:11:43;;;;;;;;;;;22.50;98.10;;;;;;5066417;28;20005;-70
2023/01/05 02:14:28;;;;;;;;;;;22.70;97.60;;;;;;5065635;28;19991;-70
2023/01/05 02:17:13;;;;;;;;;;;22.80;97.50;;;;;;5068231;28;20367;-71
2023/01/05 02:19:58;;;;;;;;;;;23.00;97.50;;;;;;5066978;28;20400;-71
2023/01/05 02:22:45;;;;;;;;;;;23.10;97.60;;;;;;5068425;28;20347;-73
2023/01/05 02:25:11;;;;;;;;;;;23.00;97.30;;;;;;5068340;28;20335;-71
2023/01/05 02:27:42;;;;;;;;;;;22.90;97.10;;;;;;5064572;28;20496;-71
2023/01/05 02:30:09;;;;;;;;;;;22.70;97.40;;;;;;5060295;28;19912;-70
2023/01/05 02:32:46;;;;;;;;;;;22.50;97.50;;;;;;5061191;28;19996;-69
2023/01/05 02:35:13;;;;;;;;;;;22.40;97.80;;;;;;5067807;28;19945;-71
2023/01/05 02:37:54;;;;;;;;;;;22.30;97.60;;;;;;5066827;28;19928;-71
2023/01/05 02:40:33;;;;;;;;;;;22.10;98.10;;;;;;5068804;28;19982;-70
2023/01/05 02:43:01;;;;;;;;;;;22.00;98.20;;;;;;5064418;28;19919;-70
2023/01/05 02:45:28;;;;;;;;;;;21.90;98.20;;;;;;5068878;28;19916;-71
2023/01/05 02:47:55;;;;;;;;;;;21.80;98.40;;;;;;5062685;28;19920;-71
2023/01/05 02:50:22;;;;;;;;;;;21.70;98.30;;;;;;5066267;28;19927;-71
2023/01/05 02:53:04;;;;;;;;;;;21.70;98.50;;;;;;5068052;28;19941;-70
2023/01/05 02:55:34;;;;;;;;;;;21.60;98.60;;;;;;5068527;28;20045;-72
2023/01/05 02:58:09;;;;;;;;;;;21.60;98.70;;;;;;5066870;28;19929;-69
2023/01/05 03:00:41;;;;;;;;;;;21.70;99.00;;;;;;5067598;28;19916;-70
2023/01/05 03:03:12;;;;;;;;;;;21.70;98.40;;;;;;5064996;28;20058;-71
2023/01/05 03:05:41;;;;;;;;;;;21.60;98.20;;;;;;5066272;28;19913;-70
2023/01/05 03:08:20;;;;;;;;;;;21.60;98.20;;;;;;5066876;28;19919;-69
2023/01/05 03:13:43;;;;;;;;;;;21.40;98.40;;;;;;5063423;28;19923;-70
2023/01/05 03:16:11;;;;;;;;;;;21.40;98.30;;;;;;5068236;28;19927;-70
2023/01/05 03:19:34;;;;;;;;;;;21.40;98.70;;;;;;5063956;28;19950;-69
2023/01/05 03:21:28;;;;;;;;;;;21.40;98.50;;;;;;5068664;28;19931;-70
2023/01/05 03:35:33;;;;;;;;;;;21.60;98.30;;;;;;5059921;28;20385;-70
2023/01/05 03:38:00;;;;;;;;;;;21.60;98.50;;;;;;5063605;28;19924;-71
2023/01/05 03:40:29;;;;;;;;;;;21.70;98.60;;;;;;5055868;28;19974;-71
2023/01/05 03:42:56;;;;;;;;;;;21.70;98.60;;;;;;5064550;28;20013;-70
2023/01/05 03:45:24;;;;;;;;;;;21.70;98.50;;;;;;5065576;28;19916;-72
2023/01/05 03:47:51;;;;;;;;;;;21.70;98.70;;;;;;5068313;28;20623;-72
2023/01/05 03:50:18;;;;;;;;;;;21.80;98.60;;;;;;5058826;28;20011;-69
2023/01/05 03:52:44;;;;;;;;;;;21.80;98.30;;;;;;5059946;28;20274;-70
2023/01/05 03:55:11;;;;;;;;;;;21.70;98.30;;;;;;5060908;28;20022;-68
2023/01/05 03:57:38;;;;;;;;;;;21.70;98.40;;;;;;5060313;28;19913;-69
2023/01/05 04:00:05;;;;;;;;;;;21.60;98.40;;;;;;5058139;28;19912;-70
2023/01/05 04:02:31;;;;;;;;;;;21.60;98.40;;;;;;5062732;28;19974;-69
2023/01/05 04:04:58;;;;;;;;;;;21.70;98.50;;;;;;5062943;28;19916;-71
2023/01/05 04:07:25;;;;;;;;;;;21.70;98.50;;;;;;5068137;28;19938;-70
2023/01/05 04:09:52;;;;;;;;;;;21.70;98.40;;;;;;5065916;28;19921;-71
2023/01/05 04:12:19;;;;;;;;;;;21.80;98.40;;;;;;5066217;28;20434;-71
2023/01/05 04:14:45;;;;;;;;;;;21.80;97.90;;;;;;5065426;28;19920;-70
2023/01/05 04:17:12;;;;;;;;;;;21.90;97.80;;;;;;5071017;28;20278;-70
2023/01/05 04:19:39;;;;;;;;;;;21.90;97.80;;;;;;5070202;28;19916;-70
2023/01/05 04:22:05;;;;;;;;;;;22.00;97.40;;;;;;5073345;28;19920;-69
2023/01/05 04:24:32;;;;;;;;;;;22.00;97.50;;;;;;5069168;28;19913;-69
2023/01/05 04:26:59;;;;;;;;;;;22.10;97.50;;;;;;5065077;28;19916;-71
2023/01/05 04:29:25;;;;;;;;;;;22.20;97.20;;;;;;5066161;28;19973;-71
2023/01/05 04:31:52;;;;;;;;;;;22.30;97.10;;;;;;5069798;28;20390;-69
2023/01/05 04:34:20;;;;;;;;;;;22.30;96.70;;;;;;5070230;28;21079;-72
2023/01/05 04:36:48;;;;;;;;;;;22.40;96.30;;;;;;5067973;28;19935;-72
2023/01/05 04:39:15;;;;;;;;;;;22.40;96.30;;;;;;5071136;28;19922;-69
2023/01/05 04:41:41;;;;;;;;;;;22.50;96.30;;;;;;5069036;28;19978;-69
2023/01/05 04:44:08;;;;;;;;;;;22.70;96.50;;;;;;5072540;28;19909;-70
2023/01/05 04:46:35;;;;;;;;;;;22.80;96.60;;;;;;5067375;28;19917;-70
2023/01/05 04:49:02;;;;;;;;;;;23.00;96.20;;;;;;5069671;28;19952;-69
2023/01/05 04:51:28;;;;;;;;;;;23.20;96.30;;;;;;5070364;28;19919;-70
2023/01/05 04:53:55;;;;;;;;;;;23.30;96.00;;;;;;5071362;28;19951;-71
2023/01/05 04:56:22;;;;;;;;;;;23.60;96.10;;;;;;5071809;28;20371;-69
2023/01/05 04:58:49;;;;;;;;;;;23.70;95.80;;;;;;5070285;28;19934;-69
2023/01/05 05:01:16;;;;;;;;;;;23.80;95.30;;;;;;5065467;28;19975;-70
2023/01/05 05:03:43;;;;;;;;;;;23.80;95.00;;;;;;5065968;28;20282;-70
2023/01/05 05:06:09;;;;;;;;;;;23.70;95.20;;;;;;5064046;28;19987;-72
2023/01/05 05:08:36;;;;;;;;;;;23.60;95.10;;;;;;5069694;28;19916;-69
2023/01/05 05:11:03;;;;;;;;;;;23.50;95.20;;;;;;5070737;28;19912;-69
2023/01/05 05:13:30;;;;;;;;;;;23.30;95.00;;;;;;5067919;28;19912;-70
2023/01/05 05:15:57;;;;;;;;;;;23.10;95.40;;;;;;5068272;28;19922;-71
2023/01/05 05:18:24;;;;;;;;;;;23.10;95.10;;;;;;5068516;28;19928;-69
2023/01/05 05:20:52;;;;;;;;;;;23.10;94.70;;;;;;5068120;28;19974;-69
2023/01/05 05:23:19;;;;;;;;;;;23.10;94.70;;;;;;5065491;28;19999;-71
2023/01/05 05:25:48;;;;;;;;;;;23.00;94.60;;;;;;5070992;28;19966;-70
2023/01/05 05:28:15;;;;;;;;;;;23.00;94.50;;;;;;5070462;28;19912;-72
2023/01/05 05:30:42;;;;;;;;;;;23.10;94.80;;;;;;5068908;28;19948;-73
2023/01/05 05:33:09;;;;;;;;;;;23.20;94.80;;;;;;5068554;28;19912;-70
2023/01/05 05:35:36;;;;;;;;;;;23.30;95.10;;;;;;5062989;28;19926;-70
2023/01/05 05:38:02;;;;;;;;;;;23.20;94.80;;;;;;5064231;28;20342;-70
2023/01/05 05:40:29;;;;;;;;;;;23.10;95.10;;;;;;5068443;28;20385;-71
2023/01/05 05:42:56;;;;;;;;;;;22.60;95.70;;;;;;5062485;28;19920;-70
2023/01/05 05:45:22;;;;;;;;;;;22.00;96.70;;;;;;5064956;28;20457;-72
2023/01/05 05:47:49;;;;;;;;;;;21.60;97.40;;;;;;5067896;28;19916;-76
2023/01/05 05:50:16;;;;;;;;;;;21.20;98.20;;;;;;5069146;28;19913;-73
2023/01/05 05:52:42;;;;;;;;;;;21.00;98.70;;;;;;5062056;28;20317;-71
2023/01/05 05:55:09;;;;;;;;;;;20.70;98.90;;;;;;5068165;28;19917;-70
2023/01/05 05:57:36;;;;;;;;;;;20.50;99.40;;;;;;5072665;28;19917;-77
2023/01/05 06:00:03;;;;;;;;;;;20.40;99.20;;;;;;5066998;28;19977;-69
2023/01/05 06:02:30;;;;;;;;;;;20.30;99.20;;;;;;5068202;28;19921;-71
2023/01/05 06:04:57;;;;;;;;;;;20.20;99.50;;;;;;5067029;28;19920;-71
2023/01/05 06:07:27;;;;;;;;;;;20.20;99.60;;;;;;5068831;28;19913;-71
2023/01/05 06:09:53;;;;;;;;;;;20.20;99.70;;;;;;5069084;28;19925;-72
2023/01/05 06:12:20;;;;;;;;;;;20.40;99.90;;;;;;5067211;28;19916;-71
2023/01/05 06:14:47;;;;;;;;;;;20.40;99.00;;;;;;5066731;28;19950;-73
2023/01/05 06:17:14;;;;;;;;;;;20.50;98.80;;;;;;5070935;28;19912;-70
2023/01/05 06:19:41;;;;;;;;;;;20.50;97.80;;;;;;5066045;28;19917;-68
2023/01/05 06:22:07;;;;;;;;;;;20.60;97.80;;;;;;5067710;28;19968;-74
2023/01/05 06:24:34;;;;;;;;;;;20.60;97.70;;;;;;5066081;28;19912;-72
2023/01/05 06:27:01;;;;;;;;;;;20.60;97.70;;;;;;5069265;28;19921;-74
2023/01/05 06:29:28;;;;;;;;;;;20.60;97.40;;;;;;5067683;28;19928;-71
2023/01/05 06:31:54;;;;;;;;;;;20.60;96.90;;;;;;5068958;28;19916;-72
2023/01/05 06:34:21;;;;;;;;;;;20.60;97.10;;;;;;5064649;28;19942;-71
2023/01/05 06:36:48;;;;;;;;;;;20.70;97.10;;;;;;5067794;28;19912;-74
2023/01/05 06:39:15;;;;;;;;;;;20.70;96.90;;;;;;5048237;28;20268;-70
2023/01/05 06:41:41;;;;;;;;;;;20.60;96.90;;;;;;5047034;28;19935;-72
2023/01/05 06:44:08;;;;;;;;;;;20.60;96.90;;;;;;5046210;28;19952;-70
2023/01/05 06:46:35;;;;;;;;;;;20.50;96.90;;;;;;5048295;28;19913;-73
2023/01/05 06:49:01;;;;;;;;;;;20.50;97.50;;;;;;5044700;28;20035;-70
2023/01/05 06:51:28;;;;;;;;;;;20.50;97.60;;;;;;5038741;28;19913;-69
2023/01/05 06:53:55;;;;;;;;;;;20.50;97.90;;;;;;5036790;28;19994;-70
2023/01/05 06:56:21;;;;;;;;;;;20.60;97.80;;;;;;5040978;28;19923;-71
2023/01/05 06:58:48;;;;;;;;;;;20.60;97.90;;;;;;5038356;28;19931;-71
2023/01/05 07:01:15;;;;;;;;;;;20.60;97.50;;;;;;5039903;28;20004;-76
2023/01/05 07:03:41;;;;;;;;;;;20.60;97.50;;;;;;5038868;28;20059;-74
2023/01/05 07:06:08;;;;;;;;;;;20.70;97.50;;;;;;5042667;28;19964;-74
2023/01/05 07:08:35;;;;;;;;;;;20.70;97.40;;;;;;5048687;28;20283;-73
2023/01/05 07:11:01;;;;;;;;;;;20.70;97.40;;;;;;5048357;28;20070;-74
2023/01/05 07:13:28;;;;;;;;;;;20.70;97.40;;;;;;5045857;28;20449;-76
2023/01/05 07:15:55;;;;;;;;;;;20.70;97.50;;;;;;5038713;28;19923;-76
2023/01/05 07:18:21;;;;;;;;;;;20.60;97.30;;;;;;5043190;28;19923;-72
2023/01/05 07:20:48;;;;;;;;;;;20.40;97.50;;;;;;5046994;28;19952;-72
2023/01/05 07:23:15;;;;;;;;;;;20.40;97.60;;;;;;5048425;28;19917;-75
2023/01/05 07:25:42;;;;;;;;;;;20.30;97.70;;;;;;5047142;28;19916;-70
2023/01/05 07:28:08;;;;;;;;;;;20.20;97.50;;;;;;5047423;28;19913;-75
2023/01/05 07:30:35;;;;;;;;;;;20.10;97.90;;;;;;5045361;28;19913;-76
2023/01/05 07:33:02;;;;;;;;;;;20.10;97.50;;;;;;5048972;28;19921;-73
2023/01/05 07:35:28;;;;;;;;;;;20.00;97.80;;;;;;5047867;28;19913;-74
2023/01/05 07:37:56;;;;;;;;;;;19.90;98.20;;;;;;5058351;28;20412;-77
2023/01/05 07:40:23;;;;;;;;;;;19.90;98.20;;;;;;5073573;28;19916;-74
2023/01/05 07:42:54;;;;;;;;;;;19.90;98.00;;;;;;5070832;28;19924;-70
2023/01/05 07:45:21;;;;;;;;;;;19.90;98.20;;;;;;5071030;28;20359;-75
2023/01/05 07:47:47;;;;;;;;;;;19.90;98.40;;;;;;5068728;28;20678;-71
2023/01/05 07:50:14;;;;;;;;;;;19.80;98.70;;;;;;5072518;28;20027;-79
2023/01/05 07:52:41;;;;;;;;;;;19.80;98.60;;;;;;5069719;28;20077;-76
2023/01/05 07:55:08;;;;;;;;;;;19.70;98.60;;;;;;5069402;28;19951;-77
2023/01/05 07:57:34;;;;;;;;;;;19.80;98.80;;;;;;5070791;28;19913;-76
2023/01/05 08:00:01;;;;;;;;;;;19.80;98.80;;;;;;5063049;28;19920;-72
2023/01/05 08:02:28;;;;;;;;;;;19.70;99.00;;;;;;5067822;28;19924;-70
2023/01/05 08:04:54;;;;;;;;;;;19.70;99.10;;;;;;5067113;28;19923;-73
2023/01/05 08:07:21;;;;;;;;;;;19.70;98.90;;;;;;5066041;28;19970;-73
2023/01/05 08:13:58;;;;;;;;;;;19.70;99.10;;;;;;5077749;28;19970;-74
2023/01/05 08:15:20;;;;;;;;;;;19.70;98.90;;;;;;5081657;28;19963;-70
2023/01/05 08:17:46;;;;;;;;;;;19.60;98.80;;;;;;5076117;28;20091;-75
2023/01/05 08:20:13;;;;;;;;;;;19.60;98.70;;;;;;5071812;28;19959;-76
2023/01/05 08:22:40;;;;;;;;;;;19.60;98.50;;;;;;5067052;28;20031;-76
2023/01/05 08:25:07;;;;;;;;;;;19.60;98.40;;;;;;5072582;28;19956;-71
2023/01/05 08:27:33;;;;;;;;;;;19.60;98.50;;;;;;5068137;28;20418;-71
2023/01/05 08:30:00;;;;;;;;;;;19.50;98.80;;;;;;5070442;28;19912;-74
2023/01/05 08:32:27;;;;;;;;;;;19.50;99.00;;;;;;5071769;28;19952;-75
2023/01/05 08:34:53;;;;;;;;;;;19.50;99.40;;;;;;5070255;28;20370;-74
2023/01/05 08:37:20;;;;;;;;;;;19.40;99.40;;;;;;5071209;28;19913;-76
2023/01/05 08:39:47;;;;;;;;;;;19.50;99.40;;;;;;5069404;28;19916;-73
2023/01/05 08:42:13;;;;;;;;;;;19.40;99.30;;;;;;5073215;28;20060;-75
2023/01/05 08:44:40;;;;;;;;;;;19.30;99.30;;;;;;5065762;28;20454;-69
2023/01/05 08:47:06;;;;;;;;;;;19.30;99.40;;;;;;5069929;28;19951;-77
2023/01/05 08:49:33;;;;;;;;;;;19.30;99.50;;;;;;5068846;28;20434;-74
2023/01/05 08:52:01;;;;;;;;;;;19.30;99.60;;;;;;5071693;28;19956;-70
2023/01/05 08:54:28;;;;;;;;;;;19.20;99.60;;;;;;5074253;28;19920;-75
2023/01/05 08:56:55;;;;;;;;;;;19.20;99.70;;;;;;5072057;28;19928;-74
2023/01/05 08:59:21;;;;;;;;;;;19.20;99.80;;;;;;5070987;28;20340;-78
2023/01/05 09:01:48;;;;;;;;;;;19.10;99.60;;;;;;5071439;28;19920;-73
2023/01/05 09:04:15;;;;;;;;;;;19.10;99.60;;;;;;5062239;28;20457;-74
2023/01/05 09:06:42;;;;;;;;;;;19.10;99.60;;;;;;5068025;28;19935;-70
2023/01/05 09:09:09;;;;;;;;;;;18.90;99.60;;;;;;5067489;28;19924;-74
2023/01/05 09:11:36;;;;;;;;;;;18.90;99.90;;;;;;5070922;28;19919;-72
2023/01/05 09:14:02;;;;;;;;;;;18.80;99.90;;;;;;5066189;28;19944;-70
2023/01/05 09:16:30;;;;;;;;;;;18.70;99.90;;;;;;5064786;28;19919;-70
2023/01/05 09:18:58;;;;;;;;;;;18.70;99.90;;;;;;5062561;28;19923;-70
2023/01/05 09:21:25;;;;;;;;;;;18.60;99.90;;;;;;5062929;28;19971;-69
2023/01/05 09:23:51;;;;;;;;;;;18.60;99.90;;;;;;5068802;28;20106;-72
2023/01/05 09:26:18;;;;;;;;;;;18.50;99.90;;;;;;5068957;28;19913;-81
2023/01/05 09:28:45;;;;;;;;;;;18.50;99.90;;;;;;5065362;28;19974;-72
2023/01/05 09:31:16;;;;;;;;;;;18.50;99.90;;;;;;5067255;28;19921;-75
2023/01/05 09:33:43;;;;;;;;;;;18.50;99.90;;;;;;5068279;28;19948;-73
2023/01/05 09:36:10;;;;;;;;;;;18.50;99.90;;;;;;5067718;28;19916;-72
2023/01/05 09:38:37;;;;;;;;;;;18.40;99.90;;;;;;5063768;28;20298;-73
2023/01/05 09:41:10;;;;;;;;;;;18.50;99.90;;;;;;5069482;28;19916;-73
2023/01/05 09:43:38;;;;;;;;;;;18.50;99.90;;;;;;5065186;28;19924;-72
2023/01/05 09:46:08;;;;;;;;;;;18.50;99.80;;;;;;5062363;28;20397;-70
2023/01/05 09:48:38;;;;;;;;;;;18.50;99.60;;;;;;5066610;28;20374;-72
2023/01/05 09:51:05;;;;;;;;;;;18.50;99.60;;;;;;5069199;28;19916;-70
2023/01/05 09:53:31;;;;;;;;;;;18.50;99.40;;;;;;5068011;28;19959;-73
2023/01/05 09:55:58;;;;;;;;;;;18.50;99.40;;;;;;5070102;28;19912;-77
2023/01/05 09:58:27;;;;;;;;;;;18.50;99.40;;;;;;5065101;28;19916;-76
2023/01/05 10:01:13;;;;;;;;;;;18.50;99.50;;;;;;5069392;28;19917;-71
2023/01/05 10:03:43;;;;;;;;;;;18.50;99.60;;;;;;5065645;28;19920;-75
2023/01/05 10:06:14;;;;;;;;;;;18.40;99.70;;;;;;5061630;28;20017;-70
2023/01/05 10:08:45;;;;;;;;;;;18.40;99.70;;;;;;5064120;28;19917;-74
2023/01/05 10:14:26;;;;;;;;;;;18.30;99.70;;;;;;5066773;28;19994;-75
2023/01/05 10:16:52;;;;;;;;;;;18.30;99.90;;;;;;5066125;28;19936;-73
2023/01/05 10:19:19;;;;;;;;;;;18.20;99.90;;;;;;5066768;28;20430;-71
2023/01/05 10:21:57;;;;;;;;;;;18.20;99.90;;;;;;5067136;28;19924;-77
2023/01/05 10:24:41;;;;;;;;;;;18.20;99.90;;;;;;5066129;28;19916;-73
2023/01/05 10:27:08;;;;;;;;;;;18.10;99.90;;;;;;5066785;28;20381;-71
2023/01/05 10:29:45;;;;;;;;;;;18.10;99.90;;;;;;5061357;28;19916;-72
2023/01/05 10:32:30;;;;;;;;;;;18.10;99.90;;;;;;5068180;28;19940;-73
2023/01/05 10:35:08;;;;;;;;;;;18.10;99.90;;;;;;5063664;28;19916;-73
2023/01/05 10:37:39;;;;;;;;;;;18.10;99.90;;;;;;5058717;28;20435;-75
2023/01/05 10:40:09;;;;;;;;;;;18.10;99.90;;;;;;5068854;28;19924;-76
2023/01/05 10:42:54;;;;;;;;;;;18.10;99.90;;;;;;5067063;28;19924;-70
2023/01/05 10:45:20;;;;;;;;;;;18.00;99.90;;;;;;5065773;28;19924;-72
2023/01/05 10:47:49;;;;;;;;;;;18.00;99.90;;;;;;5063211;28;19927;-76
2023/01/05 10:50:21;;;;;;;;;;;18.00;99.90;;;;;;5063607;28;19916;-75
2023/01/05 10:52:48;;;;;;;;;;;17.90;99.90;;;;;;5068792;28;20300;-74
2023/01/05 10:55:16;;;;;;;;;;;17.90;99.90;;;;;;5070619;28;19913;-72
2023/01/05 10:57:45;;;;;;;;;;;17.80;99.90;;;;;;5062555;28;19913;-75
2023/01/05 11:00:37;;;;;;;;;;;17.80;99.90;;;;;;5062779;28;19925;-75
2023/01/05 11:03:07;;;;;;;;;;;17.80;99.90;;;;;;5066781;28;19938;-77
2023/01/05 11:05:38;;;;;;;;;;;17.70;99.90;;;;;;5062463;28;19999;-76
2023/01/05 11:08:06;;;;;;;;;;;17.60;99.90;;;;;;5063076;28;19917;-80
2023/01/05 11:10:40;;;;;;;;;;;17.60;99.90;;;;;;5063967;28;19923;-75
2023/01/05 11:13:18;;;;;;;;;;;17.50;99.90;;;;;;5063206;28;19956;-72
2023/01/05 11:15:56;;;;;;;;;;;17.50;99.90;;;;;;5063176;28;19966;-76
2023/01/05 11:18:38;;;;;;;;;;;17.40;99.90;;;;;;5064824;28;20366;-72
2023/01/05 11:21:08;;;;;;;;;;;17.40;99.90;;;;;;5058595;28;20255;-71
2023/01/05 11:23:36;;;;;;;;;;;17.40;99.90;;;;;;5061948;28;20019;-75
2023/01/05 11:26:32;;;;;;;;;;;17.30;99.90;;;;;;5066112;28;19917;-74
2023/01/05 11:29:00;;;;;;;;;;;17.20;99.90;;;;;;5053133;28;19931;-73
2023/01/05 11:31:36;;;;;;;;;;;17.20;99.90;;;;;;5100945;28;20378;-76
2023/01/05 11:34:06;;;;;;;;;;;17.10;99.90;;;;;;5063197;28;19923;-75
2023/01/05 11:36:33;;;;;;;;;;;17.00;99.90;;;;;;5060439;28;19917;-73
2023/01/05 11:39:00;;;;;;;;;;;17.00;99.90;;;;;;5056212;28;19921;-71
2023/01/05 11:41:27;;;;;;;;;;;16.90;99.90;;;;;;5054591;28;19916;-69
2023/01/05 11:43:54;;;;;;;;;;;16.90;99.90;;;;;;5056138;28;19917;-71
2023/01/05 11:46:22;;;;;;;;;;;16.90;99.90;;;;;;5065951;28;20264;-78
2023/01/05 11:48:54;;;;;;;;;;;16.80;99.90;;;;;;5065415;28;19969;-74
2023/01/05 11:51:39;;;;;;;;;;;16.80;99.90;;;;;;5065743;28;21403;-71
2023/01/05 11:54:26;;;;;;;;;;;16.70;99.90;;;;;;5065051;28;19974;-76
2023/01/05 11:57:05;;;;;;;;;;;16.70;99.90;;;;;;5065279;28;20363;-76
2023/01/05 11:59:36;;;;;;;;;;;16.60;99.90;;;;;;5064004;28;19923;-75
2023/01/05 12:02:06;;;;;;;;;;;16.60;99.90;;;;;;5064560;28;20019;-77
2023/01/05 12:05:08;;;;;;;;;;;16.60;99.90;;;;;;5061661;28;19923;-71
2023/01/05 12:07:41;;;;;;;;;;;16.50;99.90;;;;;;5001638;28;19918;-73
2023/01/05 12:10:20;;;;;;;;;;;16.50;99.90;;;;;;5052603;28;20463;-78
2023/01/05 12:12:56;;;;;;;;;;;16.40;99.90;;;;;;5061887;28;20447;-81
2023/01/05 12:15:38;;;;;;;;;;;16.40;99.90;;;;;;5064978;28;19931;-75
2023/01/05 12:18:20;;;;;;;;;;;16.40;99.90;;;;;;5061802;28;20657;-76
2023/01/05 12:20:52;;;;;;;;;;;16.30;99.90;;;;;;5063041;28;19918;-75
2023/01/05 12:23:22;;;;;;;;;;;16.20;99.90;;;;;;5067875;28;19917;-75
2023/01/05 12:25:55;;;;;;;;;;;16.20;99.90;;;;;;5104294;28;20416;-79
2023/01/05 12:28:25;;;;;;;;;;;16.20;99.90;;;;;;5070124;28;20360;-76
2023/01/05 12:31:01;;;;;;;;;;;16.10;99.90;;;;;;5071300;28;19931;-71
2023/01/05 12:33:48;;;;;;;;;;;16.10;99.90;;;;;;5066454;28;20687;-71
2023/01/05 12:36:29;;;;;;;;;;;16.10;99.90;;;;;;5069746;28;19920;-73
2023/01/05 12:39:02;;;;;;;;;;;16.10;99.90;;;;;;5052982;28;20039;-75
2023/01/05 12:41:52;;;;;;;;;;;16.00;99.90;;;;;;5065037;28;19929;-77
2023/01/05 12:44:18;;;;;;;;;;;16.00;99.90;;;;;;5058475;28;19966;-71
2023/01/05 12:46:48;;;;;;;;;;;16.00;99.90;;;;;;5064648;28;20351;-77
2023/01/05 12:49:16;;;;;;;;;;;15.90;99.90;;;;;;5065206;28;20255;-72
2023/01/05 12:51:48;;;;;;;;;;;15.90;99.90;;;;;;5058165;28;19998;-74
2023/01/05 12:54:14;;;;;;;;;;;15.90;99.90;;;;;;5061151;28;19971;-72
2023/01/05 12:56:41;;;;;;;;;;;15.80;99.90;;;;;;5068677;28;19924;-73
2023/01/05 12:59:22;;;;;;;;;;;15.90;99.90;;;;;;5079937;28;19923;-71
2023/01/05 13:01:54;;;;;;;;;;;15.90;99.90;;;;;;5067720;28;20022;-76
2023/01/05 13:04:39;;;;;;;;;;;15.90;99.90;;;;;;5060124;28;20539;-76
2023/01/05 13:07:09;;;;;;;;;;;15.90;99.90;;;;;;5056892;28;19927;-77
2023/01/05 13:09:36;;;;;;;;;;;15.90;99.90;;;;;;5067923;28;19923;-75
2023/01/05 13:12:08;;;;;;;;;;;16.00;99.90;;;;;;5102508;28;19958;-70
2023/01/05 13:14:36;;;;;;;;;;;16.00;99.90;;;;;;5068710;28;19917;-76
2023/01/05 13:17:05;;;;;;;;;;;16.00;99.90;;;;;;5069747;28;19917;-73
2023/01/05 13:19:33;;;;;;;;;;;16.10;99.90;;;;;;5068033;28;20325;-77
2023/01/05 13:22:02;;;;;;;;;;;16.00;99.90;;;;;;5068986;28;20289;-78
2023/01/05 13:24:37;;;;;;;;;;;16.00;99.90;;;;;;5068735;28;19916;-70
2023/01/05 13:27:04;;;;;;;;;;;16.00;99.90;;;;;;5069568;28;19916;-76
2023/01/05 13:29:37;;;;;;;;;;;16.00;99.90;;;;;;5061743;28;20020;-75
2023/01/05 13:32:22;;;;;;;;;;;16.00;99.90;;;;;;5061413;28;20014;-74
2023/01/05 13:34:58;;;;;;;;;;;16.10;99.90;;;;;;5065586;28;19912;-71
2023/01/05 13:37:38;;;;;;;;;;;16.20;99.90;;;;;;5064419;28;19916;-77
2023/01/05 13:40:13;;;;;;;;;;;16.10;99.90;;;;;;5061552;28;20410;-75
2023/01/05 13:42:57;;;;;;;;;;;16.20;99.90;;;;;;5062563;28;19986;-69
2023/01/05 13:45:24;;;;;;;;;;;16.20;99.90;;;;;;5064323;28;19919;-76
2023/01/05 13:48:15;;;;;;;;;;;16.30;99.90;;;;;;5063149;28;19960;-73
2023/01/05 13:50:42;;;;;;;;;;;16.30;99.90;;;;;;5059896;28;19920;-75
2023/01/05 13:53:16;;;;;;;;;;;16.30;99.90;;;;;;5071084;28;19912;-69
2023/01/05 13:55:46;;;;;;;;;;;16.30;99.90;;;;;;5067219;28;19912;-71
2023/01/05 13:58:29;;;;;;;;;;;16.30;99.90;;;;;;5069913;28;20283;-73
2023/01/05 14:00:56;;;;;;;;;;;16.30;99.90;;;;;;5068970;28;19927;-75
2023/01/05 14:03:26;;;;;;;;;;;16.30;99.90;;;;;;5065151;28;19921;-71
2023/01/05 14:06:01;;;;;;;;;;;16.30;99.90;;;;;;5068719;28;19913;-71
2023/01/05 14:08:31;;;;;;;;;;;16.30;99.90;;;;;;5069605;28;19926;-73
2023/01/05 14:11:12;;;;;;;;;;;16.30;99.90;;;;;;5063223;28;19916;-75
2023/01/05 14:13:44;;;;;;;;;;;16.30;99.90;;;;;;5061679;28;20015;-72
2023/01/05 14:16:29;;;;;;;;;;;16.40;99.90;;;;;;5065214;28;19912;-71
2023/01/05 14:19:09;;;;;;;;;;;16.40;99.90;;;;;;5067226;28;19992;-74
2023/01/05 14:21:48;;;;;;;;;;;16.40;99.90;;;;;;5061931;28;19927;-70
2023/01/05 14:24:32;;;;;;;;;;;16.50;99.90;;;;;;5066835;28;19965;-70
2023/01/05 14:27:02;;;;;;;;;;;16.40;99.90;;;;;;5069493;28;19913;-69
2023/01/05 14:29:44;;;;;;;;;;;16.50;99.90;;;;;;5068646;28;20365;-70
2023/01/05 14:32:13;;;;;;;;;;;16.50;99.90;;;;;;5070320;28;19920;-70
2023/01/05 14:34:49;;;;;;;;;;;16.50;99.90;;;;;;5066133;28;19947;-69
2023/01/05 14:37:25;;;;;;;;;;;16.50;99.90;;;;;;5066478;28;20000;-70
2023/01/05 14:39:52;;;;;;;;;;;16.40;99.90;;;;;;5065921;28;19928;-69
2023/01/05 14:42:24;;;;;;;;;;;16.40;99.90;;;;;;5065205;28;19971;-71
2023/01/05 14:44:58;;;;;;;;;;;16.40;99.90;;;;;;5060689;28;19966;-70
2023/01/05 14:47:51;;;;;;;;;;;16.40;99.90;;;;;;5063184;28;19920;-69
2023/01/05 14:50:33;;;;;;;;;;;16.40;99.90;;;;;;5057907;28;19966;-69
2023/01/05 14:53:01;;;;;;;;;;;16.40;99.90;;;;;;5067586;28;20377;-69
2023/01/05 14:55:33;;;;;;;;;;;16.40;99.90;;;;;;5064878;28;19916;-70
2023/01/05 14:58:01;;;;;;;;;;;16.40;99.90;;;;;;5062842;28;19924;-69
2023/01/05 15:00:47;;;;;;;;;;;16.40;99.90;;;;;;5067141;28;19922;-70
2023/01/05 15:03:17;;;;;;;;;;;16.40;99.90;;;;;;5068318;28;19924;-72
2023/01/05 15:05:53;;;;;;;;;;;16.30;99.90;;;;;;5070795;28;19917;-70